createdAt,value
2022-12-11T00:01:11.771Z,15.43
2022-12-11T00:03:40.389Z,15.38
2022-12-11T00:06:09.298Z,16.02
2022-12-11T00:08:37.857Z,16.00
2022-12-11T00:11:09.697Z,16.38
2022-12-11T00:13:37.887Z,16.25
2022-12-11T00:16:07.844Z,14.88
2022-12-11T00:18:35.979Z,16.33
2022-12-11T00:21:04.659Z,16.42
2022-12-11T00:23:33.519Z,17.75
2022-12-11T00:26:01.389Z,16.38
2022-12-11T00:28:31.140Z,18.33
2022-12-11T00:30:58.991Z,17.85
2022-12-11T00:33:29.139Z,17.13
2022-12-11T00:35:56.899Z,16.88
2022-12-11T00:38:25.120Z,17.42
2022-12-11T00:40:53.037Z,17.63
2022-12-11T00:43:21.904Z,17.33
2022-12-11T00:45:54.883Z,17.17
2022-12-11T00:48:22.723Z,19.17
2022-12-11T00:50:50.892Z,16.83
2022-12-11T00:53:18.867Z,18.13
2022-12-11T00:55:46.607Z,18.42
2022-12-11T00:58:15.774Z,18.77
2022-12-11T01:00:45.196Z,19.48
2022-12-11T01:03:16.711Z,18.35
2022-12-11T01:05:52.846Z,20.25
2022-12-11T01:08:21.174Z,20.38
2022-12-11T01:10:48.307Z,18.80
2022-12-11T01:13:16.243Z,19.17
2022-12-11T01:15:46.907Z,19.92
2022-12-11T01:18:16.629Z,19.55
2022-12-11T01:20:44.958Z,19.42
2022-12-11T01:23:18.830Z,19.48
2022-12-11T01:25:47.293Z,19.00
2022-12-11T01:28:15.169Z,21.48
2022-12-11T01:30:44.098Z,20.58
2022-12-11T01:33:12.808Z,19.85
2022-12-11T01:35:42.402Z,20.73
2022-12-11T01:38:11.383Z,20.65
2022-12-11T01:40:39.253Z,19.83
2022-12-11T01:43:07.168Z,20.52
2022-12-11T01:45:42.215Z,20.83
2022-12-11T01:48:13.657Z,20.15
2022-12-11T01:50:49.133Z,20.10
2022-12-11T01:53:22.121Z,20.88
2022-12-11T01:55:54.180Z,20.40
2022-12-11T01:58:24.738Z,20.63
2022-12-11T02:00:54.430Z,20.17
2022-12-11T02:03:23.013Z,20.00
2022-12-11T02:05:52.552Z,20.30
2022-12-11T02:08:21.025Z,21.52
2022-12-11T02:11:03.427Z,22.00
2022-12-11T02:13:37.680Z,22.00
2022-12-11T02:16:13.178Z,21.38
2022-12-11T02:18:47.398Z,22.05
2022-12-11T02:21:23.315Z,22.13
2022-12-11T02:24:24.609Z,22.42
2022-12-11T02:27:12.609Z,23.88
2022-12-11T02:29:49.765Z,22.50
2022-12-11T02:32:21.684Z,22.65
2022-12-11T02:34:57.793Z,23.25
2022-12-11T02:37:30.565Z,21.17
2022-12-11T02:39:59.036Z,21.73
2022-12-11T02:42:31.357Z,22.08
2022-12-11T02:45:03.418Z,21.55
2022-12-11T02:47:32.399Z,20.60
2022-12-11T02:50:03.668Z,21.27
2022-12-11T02:52:34.365Z,20.88
2022-12-11T02:55:04.541Z,21.00
2022-12-11T02:57:39.813Z,20.85
2022-12-11T03:02:38.730Z,20.23
2022-12-11T03:05:07.203Z,20.88
2022-12-11T03:07:39.621Z,21.13
2022-12-11T03:10:10.429Z,21.80
2022-12-11T03:12:42.335Z,20.00
2022-12-11T03:15:15.662Z,21.00
2022-12-11T03:17:58.547Z,20.65
2022-12-11T03:20:36.476Z,21.88
2022-12-11T03:23:14.119Z,21.80
2022-12-11T03:25:47.965Z,22.23
2022-12-11T03:28:19.837Z,22.13
2022-12-11T03:30:52.798Z,21.75
2022-12-11T03:33:26.021Z,23.48
2022-12-11T03:35:57.376Z,22.70
2022-12-11T03:38:32.425Z,21.95
2022-12-11T03:41:03.377Z,24.08
2022-12-11T03:43:33.059Z,24.42
2022-12-11T03:46:02.722Z,24.35
2022-12-11T03:48:36.921Z,23.50
2022-12-11T03:51:08.052Z,24.25
2022-12-11T03:53:38.112Z,23.88
2022-12-11T03:56:08.480Z,26.50
2022-12-11T03:58:36.591Z,25.77
2022-12-11T04:01:10.618Z,24.05
2022-12-11T04:03:39.094Z,26.00
2022-12-11T04:06:07.417Z,25.88
2022-12-11T04:08:35.698Z,25.00
2022-12-11T04:11:21.677Z,24.10
2022-12-11T04:14:11.936Z,25.70
2022-12-11T04:16:40.167Z,26.88
2022-12-11T04:19:25.737Z,24.95
2022-12-11T04:24:39.778Z,27.30
2022-12-11T04:27:07.957Z,25.02
2022-12-11T04:29:36.144Z,24.75
2022-12-11T04:32:05.618Z,24.70
2022-12-11T04:34:33.432Z,25.60
2022-12-11T04:37:01.628Z,27.23
2022-12-11T04:39:29.416Z,25.83
2022-12-11T04:41:57.721Z,25.83
2022-12-11T04:44:25.495Z,24.83
2022-12-11T04:46:53.549Z,25.15
2022-12-11T04:49:22.833Z,25.80
2022-12-11T04:51:51.301Z,24.83
2022-12-11T04:54:19.066Z,25.20
2022-12-11T04:56:49.494Z,24.48
2022-12-11T04:59:17.426Z,25.20
2022-12-11T05:01:45.660Z,24.25
2022-12-11T05:04:17.141Z,24.33
2022-12-11T05:06:47.042Z,24.85
2022-12-11T05:09:15.490Z,26.95
2022-12-11T05:11:43.918Z,24.35
2022-12-11T05:14:11.760Z,24.75
2022-12-11T05:16:39.935Z,26.23
2022-12-11T05:19:07.766Z,24.33
2022-12-11T05:21:36.058Z,26.13
2022-12-11T05:24:05.772Z,24.70
2022-12-11T05:26:34.072Z,24.63
2022-12-11T05:29:01.897Z,24.27
2022-12-11T05:31:30.064Z,25.65
2022-12-11T05:33:58.389Z,24.80
2022-12-11T05:36:28.601Z,24.98
2022-12-11T05:38:57.654Z,24.88
2022-12-11T05:41:30.704Z,27.15
2022-12-11T05:43:58.702Z,25.42
2022-12-11T05:46:28.367Z,28.50
2022-12-11T05:48:58.317Z,25.95
2022-12-11T05:51:27.081Z,26.30
2022-12-11T05:53:56.973Z,25.30
2022-12-11T05:56:27.659Z,24.75
2022-12-11T05:58:57.008Z,24.23
2022-12-11T06:01:27.522Z,25.58
2022-12-11T06:03:57.071Z,24.17
2022-12-11T06:06:25.768Z,25.35
2022-12-11T06:08:54.867Z,22.92
2022-12-11T06:11:24.388Z,25.05
2022-12-11T06:13:54.726Z,26.00
2022-12-11T06:16:23.125Z,23.27
2022-12-11T06:18:52.278Z,24.33
2022-12-11T06:21:23.769Z,25.30
2022-12-11T06:23:53.544Z,25.20
2022-12-11T06:26:22.019Z,25.60
2022-12-11T06:28:51.180Z,24.52
2022-12-11T06:31:20.853Z,25.77
2022-12-11T06:33:49.537Z,24.13
2022-12-11T06:36:19.721Z,25.90
2022-12-11T06:38:48.969Z,25.42
2022-12-11T06:41:17.357Z,23.77
2022-12-11T06:43:45.619Z,25.50
2022-12-11T06:46:15.352Z,24.27
2022-12-11T06:48:46.284Z,24.77
2022-12-11T06:51:15.872Z,23.20
2022-12-11T06:53:44.738Z,25.08
2022-12-11T06:56:15.747Z,23.90
2022-12-11T06:58:45.385Z,24.10
2022-12-11T07:01:19.053Z,24.73
2022-12-11T07:03:49.420Z,24.45
2022-12-11T07:06:17.548Z,24.95
2022-12-11T07:08:45.525Z,23.05
2022-12-11T07:11:15.934Z,24.35
2022-12-11T07:13:44.192Z,24.05
2022-12-11T07:16:14.532Z,24.73
2022-12-11T07:18:44.349Z,23.65
2022-12-11T07:21:15.449Z,25.30
2022-12-11T07:23:43.805Z,24.02
2022-12-11T07:26:14.558Z,25.13
2022-12-11T07:28:43.951Z,25.00
2022-12-11T07:31:15.710Z,24.92
2022-12-11T07:33:44.260Z,22.50
2022-12-11T07:36:15.098Z,24.15
2022-12-11T07:38:43.405Z,22.42
2022-12-11T07:41:15.774Z,22.58
2022-12-11T07:43:44.349Z,23.38
2022-12-11T07:46:14.456Z,23.08
2022-12-11T07:48:44.531Z,23.75
2022-12-11T07:51:16.288Z,25.33
2022-12-11T07:53:45.518Z,23.63
2022-12-11T07:56:13.532Z,22.83
2022-12-11T07:58:41.307Z,25.25
2022-12-11T08:01:13.631Z,23.85
2022-12-11T08:03:42.134Z,23.10
2022-12-11T08:06:11.069Z,23.85
2022-12-11T08:08:41.539Z,24.77
2022-12-11T08:11:12.058Z,25.48
2022-12-11T08:13:40.793Z,40.25
2022-12-11T08:16:11.491Z,33.40
2022-12-11T08:18:40.247Z,25.95
2022-12-11T08:21:08.602Z,25.52
2022-12-11T08:23:36.927Z,26.52
2022-12-11T08:26:08.559Z,25.58
2022-12-11T08:28:37.599Z,25.33
2022-12-11T08:31:06.171Z,25.52
2022-12-11T08:33:34.536Z,26.00
2022-12-11T08:36:03.958Z,26.85
2022-12-11T08:38:32.298Z,25.17
2022-12-11T08:41:00.438Z,24.65
2022-12-11T08:43:30.986Z,24.98
2022-12-11T08:45:58.702Z,24.60
2022-12-11T08:48:26.617Z,23.05
2022-12-11T08:50:54.816Z,22.92
2022-12-11T08:53:22.521Z,23.23
2022-12-11T08:55:50.575Z,24.92
2022-12-11T08:58:18.278Z,26.10
2022-12-11T09:00:47.612Z,24.75
2022-12-11T09:03:15.525Z,28.20
2022-12-11T09:05:43.386Z,23.73
2022-12-11T09:08:11.725Z,24.00
2022-12-11T09:10:39.900Z,24.70
2022-12-11T09:13:08.143Z,23.15
2022-12-11T09:15:36.321Z,22.25
2022-12-11T09:18:05.673Z,23.58
2022-12-11T09:20:34.456Z,24.15
2022-12-11T09:23:02.674Z,21.02
2022-12-11T09:25:30.336Z,26.02
2022-12-11T09:27:58.001Z,26.80
2022-12-11T09:30:26.028Z,24.80
2022-12-11T09:32:54.451Z,22.40
2022-12-11T09:35:23.518Z,25.42
2022-12-11T09:37:51.378Z,22.75
2022-12-11T09:40:19.947Z,21.10
2022-12-11T09:42:55.863Z,21.67
2022-12-11T09:45:23.815Z,24.83
2022-12-11T09:47:56.196Z,22.20
2022-12-11T09:50:28.369Z,21.40
2022-12-11T09:53:09.347Z,23.63
2022-12-11T09:55:52.398Z,22.45
2022-12-11T09:58:26.150Z,26.05
2022-12-11T10:01:01.687Z,24.48
2022-12-11T10:03:47.974Z,21.70
2022-12-11T10:06:26.286Z,20.05
2022-12-11T10:09:04.955Z,22.70
2022-12-11T10:11:48.284Z,27.45
2022-12-11T10:14:27.250Z,22.52
2022-12-11T10:17:01.295Z,21.63
2022-12-11T10:19:32.028Z,21.73
2022-12-11T10:37:07.639Z,20.33
2022-12-11T10:39:35.551Z,22.17
2022-12-11T10:42:17.445Z,23.88
2022-12-11T10:44:57.766Z,21.63
2022-12-11T10:47:25.880Z,22.88
2022-12-11T10:49:58.618Z,22.92
2022-12-11T10:52:28.773Z,21.45
2022-12-11T10:55:00.834Z,22.38
2022-12-11T10:57:30.694Z,22.02
2022-12-11T11:00:01.039Z,21.30
2022-12-11T11:02:33.366Z,21.55
2022-12-11T11:05:14.636Z,20.95
2022-12-11T11:07:42.513Z,21.23
2022-12-11T11:10:18.282Z,20.98
2022-12-11T11:12:48.230Z,19.63
2022-12-11T11:15:20.047Z,20.92
2022-12-11T11:17:55.089Z,19.50
2022-12-11T11:20:28.138Z,22.20
2022-12-11T11:22:58.645Z,26.30
2022-12-11T11:25:29.388Z,26.60
2022-12-11T11:27:59.020Z,32.22
2022-12-11T11:30:28.237Z,32.70
2022-12-11T11:32:57.823Z,25.55
2022-12-11T11:35:28.669Z,20.33
2022-12-11T11:38:04.140Z,20.27
2022-12-11T11:40:37.146Z,20.85
2022-12-11T11:43:17.905Z,21.00
2022-12-11T11:45:52.622Z,19.20
2022-12-11T11:48:41.124Z,19.45
2022-12-11T11:51:17.021Z,18.55
2022-12-11T11:53:49.369Z,18.98
2022-12-11T11:56:28.681Z,21.25
2022-12-11T11:59:07.255Z,19.77
2022-12-11T12:01:35.134Z,17.73
2022-12-11T12:04:04.713Z,19.13
2022-12-11T12:07:09.039Z,17.23
2022-12-11T12:09:50.739Z,18.60
2022-12-11T12:12:34.118Z,17.55
2022-12-11T12:15:14.909Z,18.90
2022-12-11T12:17:55.695Z,18.88
2022-12-11T12:20:38.684Z,17.02
2022-12-11T12:23:27.398Z,19.70
2022-12-11T12:26:05.581Z,33.83
2022-12-11T12:28:40.281Z,39.58
2022-12-11T12:31:26.659Z,23.23
2022-12-11T12:34:03.736Z,23.25
2022-12-11T12:36:40.453Z,19.50
2022-12-11T12:39:23.034Z,20.30
2022-12-11T12:42:01.372Z,32.33
2022-12-11T12:44:42.922Z,39.97
2022-12-11T12:47:14.769Z,31.75
2022-12-11T12:49:44.537Z,26.13
2022-12-11T12:52:17.606Z,28.15
2022-12-11T12:55:03.590Z,28.23
2022-12-11T12:57:32.456Z,22.92
2022-12-11T13:00:00.346Z,33.22
2022-12-11T13:02:28.519Z,39.28
2022-12-11T13:04:59.619Z,41.65
2022-12-11T13:07:30.864Z,31.40
2022-12-11T13:10:07.419Z,28.80
2022-12-11T13:12:44.205Z,40.33
2022-12-11T13:15:35.329Z,36.67
2022-12-11T13:18:26.296Z,24.10
2022-12-11T13:20:54.994Z,24.13
2022-12-11T13:23:29.382Z,43.25
2022-12-11T13:26:01.471Z,60.07
2022-12-11T13:28:46.603Z,37.00
2022-12-11T13:31:31.912Z,45.83
2022-12-11T13:34:09.864Z,38.13
2022-12-11T13:36:40.468Z,51.95
2022-12-11T13:39:18.292Z,50.35
2022-12-11T13:41:53.683Z,26.15
2022-12-11T13:44:25.728Z,29.58
2022-12-11T13:46:55.879Z,32.30
2022-12-11T13:49:26.551Z,26.15
2022-12-11T13:51:57.454Z,36.97
2022-12-11T13:54:26.579Z,28.15
2022-12-11T13:57:05.502Z,21.70
2022-12-11T13:59:36.825Z,38.42
2022-12-11T14:02:11.936Z,23.13
2022-12-11T14:04:41.217Z,24.15
2022-12-11T14:07:12.031Z,34.83
2022-12-11T14:09:44.491Z,21.88
2022-12-11T14:12:19.509Z,21.90
2022-12-11T14:14:50.839Z,21.08
2022-12-11T14:17:25.021Z,20.23
2022-12-11T14:19:53.588Z,18.83
2022-12-11T14:22:23.621Z,19.30
2022-12-11T14:24:52.549Z,19.73
2022-12-11T14:27:22.416Z,30.27
2022-12-11T14:29:52.292Z,38.17
2022-12-11T14:32:29.127Z,27.08
2022-12-11T14:34:57.443Z,21.20
2022-12-11T14:37:28.540Z,20.95
2022-12-11T14:40:01.274Z,20.67
2022-12-11T14:42:34.936Z,21.63
2022-12-11T14:45:09.394Z,24.20
2022-12-11T14:47:42.096Z,62.70
2022-12-11T14:50:18.956Z,39.25
2022-12-11T14:52:50.160Z,25.05
2022-12-11T14:55:24.013Z,22.30
2022-12-11T14:57:57.800Z,25.20
2022-12-11T15:00:28.455Z,25.48
2022-12-11T15:03:01.535Z,31.33
2022-12-11T15:05:34.461Z,51.83
2022-12-11T15:08:24.383Z,35.10
2022-12-11T15:11:03.608Z,42.05
2022-12-11T15:13:34.263Z,38.72
2022-12-11T15:16:03.988Z,30.17
2022-12-11T15:18:35.001Z,33.33
2022-12-11T15:21:07.400Z,31.02
2022-12-11T15:23:41.323Z,29.80
2022-12-11T15:26:09.038Z,27.73
2022-12-11T15:28:40.052Z,22.92
2022-12-11T15:31:24.076Z,22.95
2022-12-11T15:33:51.799Z,21.95
2022-12-11T15:36:26.803Z,19.80
2022-12-11T15:38:54.740Z,18.70
2022-12-11T15:41:24.601Z,20.92
2022-12-11T15:43:58.950Z,21.58
2022-12-11T15:46:27.620Z,21.42
2022-12-11T15:48:58.402Z,20.58
2022-12-11T15:51:27.586Z,20.63
2022-12-11T15:53:55.555Z,19.63
2022-12-11T15:56:23.520Z,19.83
2022-12-11T15:58:51.402Z,18.45
2022-12-11T16:01:21.458Z,18.38
2022-12-11T16:03:50.422Z,19.60
2022-12-11T16:06:18.816Z,19.52
2022-12-11T16:08:46.749Z,19.52
2022-12-11T16:11:15.258Z,19.90
2022-12-11T16:13:43.633Z,17.92
2022-12-11T16:16:11.751Z,15.73
2022-12-11T16:18:41.200Z,18.55
2022-12-11T16:21:09.115Z,17.50
2022-12-11T16:23:37.078Z,18.58
2022-12-11T16:26:10.116Z,18.27
2022-12-11T16:28:38.032Z,19.58
2022-12-11T16:31:11.871Z,19.13
2022-12-11T16:33:41.623Z,19.23
2022-12-11T16:36:16.857Z,18.15
2022-12-11T16:43:48.974Z,16.33
2022-12-11T16:46:18.946Z,16.58
2022-12-11T16:48:48.656Z,16.48
2022-12-11T16:51:17.070Z,15.77
2022-12-11T16:53:45.096Z,16.88
2022-12-11T16:56:13.654Z,16.73
2022-12-11T16:58:43.008Z,16.27
2022-12-11T17:01:12.253Z,16.50
2022-12-11T17:03:41.092Z,17.77
2022-12-11T17:06:12.325Z,18.05
2022-12-11T17:08:43.105Z,19.50
2022-12-11T17:11:14.186Z,21.10
2022-12-11T17:13:42.722Z,20.77
2022-12-11T17:16:13.824Z,22.50
2022-12-11T17:18:42.185Z,23.27
2022-12-11T17:21:15.774Z,34.13
2022-12-11T17:23:44.781Z,43.70
2022-12-11T17:26:14.985Z,28.50
2022-12-11T17:28:43.492Z,25.00
2022-12-11T17:31:15.355Z,21.83
2022-12-11T17:33:44.623Z,16.83
2022-12-11T17:36:16.577Z,16.90
2022-12-11T17:38:45.094Z,15.82
2022-12-11T17:41:20.328Z,18.40
2022-12-11T17:43:49.989Z,16.98
2022-12-11T17:46:18.792Z,16.85
2022-12-11T17:48:47.009Z,16.70
2022-12-11T17:51:22.401Z,15.75
2022-12-11T17:53:50.718Z,15.85
2022-12-11T17:56:18.674Z,13.98
2022-12-11T17:58:47.324Z,14.40
2022-12-11T18:01:15.533Z,21.88
2022-12-11T18:03:43.978Z,20.60
2022-12-11T18:06:15.156Z,25.13
2022-12-11T18:08:46.579Z,22.85
2022-12-11T18:11:16.415Z,21.77
2022-12-11T18:13:47.034Z,27.02
2022-12-11T18:16:18.224Z,25.27
2022-12-11T18:18:47.424Z,26.63
2022-12-11T18:21:16.902Z,23.98
2022-12-11T18:23:47.427Z,27.17
2022-12-11T18:26:15.941Z,29.35
2022-12-11T18:28:44.694Z,27.10
2022-12-11T18:31:14.430Z,26.02
2022-12-11T18:33:45.146Z,24.83
2022-12-11T18:36:14.863Z,25.90
2022-12-11T18:38:44.472Z,24.83
2022-12-11T18:41:17.919Z,32.30
2022-12-11T18:43:48.358Z,31.80
2022-12-11T18:46:19.882Z,34.42
2022-12-11T18:48:49.062Z,33.28
2022-12-11T18:51:19.575Z,37.90
2022-12-11T18:53:47.778Z,44.42
2022-12-11T18:56:20.271Z,37.72
2022-12-11T18:58:49.173Z,33.03
2022-12-11T19:01:20.509Z,30.38
2022-12-11T19:03:49.191Z,29.92
2022-12-11T19:06:19.753Z,26.00
2022-12-11T19:08:48.386Z,36.25
2022-12-11T19:11:20.404Z,28.45
2022-12-11T19:13:49.497Z,29.15
2022-12-11T19:16:19.440Z,29.45
2022-12-11T19:18:48.519Z,27.88
2022-12-11T19:21:18.883Z,27.42
2022-12-11T19:23:48.296Z,37.05
2022-12-11T19:26:20.208Z,26.02
2022-12-11T19:28:50.779Z,31.73
2022-12-11T19:31:21.779Z,36.55
2022-12-11T19:33:50.330Z,34.53
2022-12-11T19:36:20.981Z,27.25
2022-12-11T19:38:50.234Z,23.63
2022-12-11T19:41:23.439Z,27.17
2022-12-11T19:43:52.297Z,27.60
2022-12-11T19:46:22.753Z,22.92
2022-12-11T19:48:52.503Z,23.27
2022-12-11T19:51:22.784Z,21.38
2022-12-11T19:53:51.268Z,24.00
2022-12-11T19:56:21.601Z,23.48
2022-12-11T19:58:53.595Z,20.63
2022-12-11T20:01:25.075Z,21.92
2022-12-11T20:03:57.752Z,22.73
2022-12-11T20:06:25.786Z,29.85
2022-12-11T20:08:53.819Z,30.58
2022-12-11T20:11:23.289Z,23.38
2022-12-11T20:13:51.634Z,24.65
2022-12-11T20:16:39.195Z,42.65
2022-12-11T20:19:08.721Z,22.55
2022-12-11T20:21:36.587Z,20.30
2022-12-11T20:24:04.798Z,21.52
2022-12-11T20:26:36.469Z,20.25
2022-12-11T20:29:07.406Z,20.25
2022-12-11T20:31:38.697Z,20.35
2022-12-11T20:34:07.405Z,83.30
2022-12-11T20:36:35.422Z,52.83
2022-12-11T20:39:03.511Z,72.20
2022-12-11T20:41:32.566Z,37.50
2022-12-11T20:44:02.671Z,39.38
2022-12-11T20:46:30.750Z,26.83
2022-12-11T20:49:00.675Z,25.08
2022-12-11T20:51:32.773Z,22.30
2022-12-11T20:54:01.505Z,21.75
2022-12-11T20:56:32.155Z,25.50
2022-12-11T20:59:02.516Z,25.98
2022-12-11T21:01:32.923Z,49.00
2022-12-11T21:04:01.129Z,49.97
2022-12-11T21:06:31.821Z,37.78
2022-12-11T21:09:00.869Z,30.70
2022-12-11T21:11:29.465Z,25.17
2022-12-11T21:13:57.325Z,26.20
2022-12-11T21:16:31.906Z,22.23
2022-12-11T21:19:00.417Z,22.83
2022-12-11T21:21:28.423Z,22.23
2022-12-11T21:23:56.491Z,20.98
2022-12-11T21:26:24.426Z,20.55
2022-12-11T21:28:53.291Z,19.45
2022-12-11T21:31:21.455Z,26.27
2022-12-11T21:33:50.904Z,25.83
2022-12-11T21:36:18.968Z,20.98
2022-12-11T21:38:47.687Z,19.77
2022-12-11T21:41:18.103Z,23.92
2022-12-11T21:45:21.228Z,20.52
2022-12-11T21:46:37.039Z,24.15
2022-12-11T21:49:08.336Z,25.17
2022-12-11T21:51:41.489Z,26.90
2022-12-11T21:54:15.552Z,25.80
2022-12-11T21:56:44.512Z,26.60
2022-12-11T21:59:12.435Z,26.58
2022-12-11T22:01:42.976Z,25.60
2022-12-11T22:04:13.568Z,33.08
2022-12-11T22:06:47.089Z,24.77
2022-12-11T22:09:15.496Z,22.85
2022-12-11T22:11:45.275Z,21.70
2022-12-11T22:14:14.313Z,24.63
2022-12-11T22:16:42.542Z,24.63
2022-12-11T22:19:11.336Z,20.25
2022-12-11T22:21:41.140Z,20.80
2022-12-11T22:24:09.420Z,23.25
2022-12-11T22:26:37.253Z,24.92
2022-12-11T22:29:05.177Z,24.38
2022-12-11T22:31:33.522Z,26.70
2022-12-11T22:34:01.476Z,23.38
2022-12-11T22:36:29.436Z,23.10
2022-12-11T22:39:00.929Z,21.75
2022-12-11T22:41:31.357Z,19.35
2022-12-11T22:44:00.559Z,19.55
2022-12-11T22:46:30.969Z,21.20
2022-12-11T22:49:04.587Z,23.02
2022-12-11T22:51:32.431Z,29.63
2022-12-11T22:54:01.934Z,22.15
2022-12-11T22:56:29.933Z,32.17
2022-12-11T22:58:58.369Z,39.03
2022-12-11T23:01:28.230Z,35.75
2022-12-11T23:03:59.071Z,32.17
2022-12-11T23:06:26.974Z,24.60
2022-12-11T23:08:59.263Z,25.70
2022-12-11T23:11:31.531Z,24.13
2022-12-11T23:13:59.616Z,20.92
2022-12-11T23:16:28.971Z,21.90
2022-12-11T23:18:58.113Z,25.25
2022-12-11T23:21:27.980Z,21.88
2022-12-11T23:23:56.268Z,20.10
2022-12-11T23:26:24.664Z,19.83
2022-12-11T23:28:55.082Z,19.80
2022-12-11T23:31:24.156Z,20.40
2022-12-11T23:33:52.136Z,21.30
2022-12-11T23:36:20.733Z,22.42
2022-12-11T23:38:54.309Z,19.70
2022-12-11T23:41:23.236Z,20.70
2022-12-11T23:43:51.199Z,20.60
2022-12-11T23:46:24.079Z,20.08
2022-12-11T23:48:53.646Z,21.77
2022-12-11T23:51:22.997Z,20.05
2022-12-11T23:53:51.314Z,20.02
2022-12-11T23:56:23.084Z,20.00
2022-12-11T23:58:52.263Z,20.15
